sensor_id;sensor_type;location;lat;lon;timestamp;P1;durP1;ratioP1;P2;durP2;ratioP2
11425;SDS011;5769;47.998;7.788;2024-03-06T00:01:03;321.30;;;49.00;;
11425;SDS011;5769;47.998;7.788;2024-03-06T00:03:31;317.30;;;48.10;;
11425;SDS011;5769;47.998;7.788;2024-03-06T00:05:58;317.53;;;48.20;;
11425;SDS011;5769;47.998;7.788;2024-03-06T00:08:25;308.77;;;45.47;;
11425;SDS011;5769;47.998;7.788;2024-03-06T00:10:53;321.33;;;49.10;;
11425;SDS011;5769;47.998;7.788;2024-03-06T00:13:20;316.27;;;48.57;;
11425;SDS011;5769;47.998;7.788;2024-03-06T00:15:47;305.57;;;45.93;;
11425;SDS011;5769;47.998;7.788;2024-03-06T00:18:15;301.00;;;44.60;;
11425;SDS011;5769;47.998;7.788;2024-03-06T00:20:43;314.00;;;46.70;;
11425;SDS011;5769;47.998;7.788;2024-03-06T00:23:10;331.90;;;49.40;;
11425;SDS011;5769;47.998;7.788;2024-03-06T00:25:37;334.75;;;52.85;;
11425;SDS011;5769;47.998;7.788;2024-03-06T00:28:06;331.70;;;49.17;;
11425;SDS011;5769;47.998;7.788;2024-03-06T00:30:33;330.75;;;49.25;;
11425;SDS011;5769;47.998;7.788;2024-03-06T00:32:59;328.95;;;48.42;;
11425;SDS011;5769;47.998;7.788;2024-03-06T00:35:26;326.52;;;48.63;;
11425;SDS011;5769;47.998;7.788;2024-03-06T00:37:55;324.20;;;48.67;;
11425;SDS011;5769;47.998;7.788;2024-03-06T00:40:22;326.33;;;48.75;;
11425;SDS011;5769;47.998;7.788;2024-03-06T00:42:48;334.15;;;49.33;;
11425;SDS011;5769;47.998;7.788;2024-03-06T00:45:15;334.25;;;49.42;;
11425;SDS011;5769;47.998;7.788;2024-03-06T00:47:42;334.65;;;49.35;;
11425;SDS011;5769;47.998;7.788;2024-03-06T00:50:09;334.35;;;49.03;;
11425;SDS011;5769;47.998;7.788;2024-03-06T00:52:35;333.33;;;49.35;;
11425;SDS011;5769;47.998;7.788;2024-03-06T00:55:04;332.98;;;49.05;;
11425;SDS011;5769;47.998;7.788;2024-03-06T00:57:31;333.27;;;49.22;;
11425;SDS011;5769;47.998;7.788;2024-03-06T01:00:02;331.60;;;49.22;;
11425;SDS011;5769;47.998;7.788;2024-03-06T01:02:31;334.63;;;49.20;;
11425;SDS011;5769;47.998;7.788;2024-03-06T01:05:03;335.85;;;49.30;;
11425;SDS011;5769;47.998;7.788;2024-03-06T01:07:30;335.17;;;49.80;;
11425;SDS011;5769;47.998;7.788;2024-03-06T01:09:59;333.88;;;49.72;;
11425;SDS011;5769;47.998;7.788;2024-03-06T01:12:28;334.40;;;49.38;;
11425;SDS011;5769;47.998;7.788;2024-03-06T01:14:55;335.08;;;49.90;;
11425;SDS011;5769;47.998;7.788;2024-03-06T01:17:22;335.27;;;49.65;;
11425;SDS011;5769;47.998;7.788;2024-03-06T01:19:49;332.80;;;49.50;;
11425;SDS011;5769;47.998;7.788;2024-03-06T01:22:18;333.92;;;49.35;;
11425;SDS011;5769;47.998;7.788;2024-03-06T01:24:45;334.45;;;49.65;;
11425;SDS011;5769;47.998;7.788;2024-03-06T01:27:14;335.35;;;49.53;;
11425;SDS011;5769;47.998;7.788;2024-03-06T01:29:43;333.92;;;49.13;;
11425;SDS011;5769;47.998;7.788;2024-03-06T01:32:10;335.05;;;50.05;;
11425;SDS011;5769;47.998;7.788;2024-03-06T01:34:36;334.23;;;49.70;;
11425;SDS011;5769;47.998;7.788;2024-03-06T01:37:03;334.70;;;50.08;;
11425;SDS011;5769;47.998;7.788;2024-03-06T01:39:30;333.50;;;49.60;;
11425;SDS011;5769;47.998;7.788;2024-03-06T01:42:00;334.00;;;49.45;;
11425;SDS011;5769;47.998;7.788;2024-03-06T01:44:28;336.48;;;49.60;;
11425;SDS011;5769;47.998;7.788;2024-03-06T01:46:56;333.35;;;49.22;;
11425;SDS011;5769;47.998;7.788;2024-03-06T01:49:23;334.38;;;49.85;;
11425;SDS011;5769;47.998;7.788;2024-03-06T01:51:54;333.63;;;49.65;;
11425;SDS011;5769;47.998;7.788;2024-03-06T01:54:24;335.08;;;49.70;;
11425;SDS011;5769;47.998;7.788;2024-03-06T01:56:52;335.05;;;49.58;;
11425;SDS011;5769;47.998;7.788;2024-03-06T01:59:21;329.75;;;49.28;;
11425;SDS011;5769;47.998;7.788;2024-03-06T02:01:52;334.10;;;49.15;;
11425;SDS011;5769;47.998;7.788;2024-03-06T02:04:21;334.30;;;49.47;;
11425;SDS011;5769;47.998;7.788;2024-03-06T02:06:50;335.92;;;49.97;;
11425;SDS011;5769;47.998;7.788;2024-03-06T02:09:17;334.70;;;49.85;;
11425;SDS011;5769;47.998;7.788;2024-03-06T02:11:44;334.83;;;49.60;;
11425;SDS011;5769;47.998;7.788;2024-03-06T02:14:12;334.13;;;49.65;;
11425;SDS011;5769;47.998;7.788;2024-03-06T02:16:38;334.80;;;50.10;;
11425;SDS011;5769;47.998;7.788;2024-03-06T02:19:05;334.77;;;49.72;;
11425;SDS011;5769;47.998;7.788;2024-03-06T02:21:33;334.88;;;49.47;;
11425;SDS011;5769;47.998;7.788;2024-03-06T02:24:00;334.42;;;49.35;;
11425;SDS011;5769;47.998;7.788;2024-03-06T02:26:27;333.60;;;49.60;;
11425;SDS011;5769;47.998;7.788;2024-03-06T02:28:54;335.38;;;50.03;;
11425;SDS011;5769;47.998;7.788;2024-03-06T02:31:22;334.88;;;49.42;;
11425;SDS011;5769;47.998;7.788;2024-03-06T02:33:49;332.83;;;49.35;;
11425;SDS011;5769;47.998;7.788;2024-03-06T02:36:16;333.83;;;49.28;;
11425;SDS011;5769;47.998;7.788;2024-03-06T02:38:45;333.33;;;49.75;;
11425;SDS011;5769;47.998;7.788;2024-03-06T02:41:12;334.42;;;49.45;;
11425;SDS011;5769;47.998;7.788;2024-03-06T02:43:41;333.23;;;49.58;;
11425;SDS011;5769;47.998;7.788;2024-03-06T02:46:07;328.90;;;48.63;;
11425;SDS011;5769;47.998;7.788;2024-03-06T02:48:34;331.00;;;49.13;;
11425;SDS011;5769;47.998;7.788;2024-03-06T02:51:01;332.48;;;49.33;;
11425;SDS011;5769;47.998;7.788;2024-03-06T02:53:28;334.00;;;49.72;;
11425;SDS011;5769;47.998;7.788;2024-03-06T02:55:56;335.30;;;49.25;;
11425;SDS011;5769;47.998;7.788;2024-03-06T02:58:23;334.63;;;49.72;;
11425;SDS011;5769;47.998;7.788;2024-03-06T03:00:53;332.80;;;49.47;;
11425;SDS011;5769;47.998;7.788;2024-03-06T03:03:19;328.27;;;48.50;;
11425;SDS011;5769;47.998;7.788;2024-03-06T03:05:46;330.90;;;48.90;;
11425;SDS011;5769;47.998;7.788;2024-03-06T03:08:13;331.50;;;49.40;;
11425;SDS011;5769;47.998;7.788;2024-03-06T03:10:41;329.48;;;48.90;;
11425;SDS011;5769;47.998;7.788;2024-03-06T03:13:11;333.85;;;49.05;;
11425;SDS011;5769;47.998;7.788;2024-03-06T03:15:38;333.45;;;49.38;;
11425;SDS011;5769;47.998;7.788;2024-03-06T03:18:07;330.42;;;49.25;;
11425;SDS011;5769;47.998;7.788;2024-03-06T03:20:34;334.77;;;49.50;;
11425;SDS011;5769;47.998;7.788;2024-03-06T03:23:02;329.00;;;48.83;;
11425;SDS011;5769;47.998;7.788;2024-03-06T03:25:29;329.10;;;49.05;;
11425;SDS011;5769;47.998;7.788;2024-03-06T03:27:56;332.35;;;49.50;;
11425;SDS011;5769;47.998;7.788;2024-03-06T03:30:25;330.60;;;49.35;;
11425;SDS011;5769;47.998;7.788;2024-03-06T03:32:52;332.63;;;49.42;;
11425;SDS011;5769;47.998;7.788;2024-03-06T03:35:19;334.38;;;49.72;;
11425;SDS011;5769;47.998;7.788;2024-03-06T03:37:50;334.85;;;49.88;;
11425;SDS011;5769;47.998;7.788;2024-03-06T03:40:17;331.73;;;49.42;;
11425;SDS011;5769;47.998;7.788;2024-03-06T03:42:44;333.88;;;49.80;;
11425;SDS011;5769;47.998;7.788;2024-03-06T03:45:11;333.77;;;49.63;;
11425;SDS011;5769;47.998;7.788;2024-03-06T03:47:39;334.30;;;49.67;;
11425;SDS011;5769;47.998;7.788;2024-03-06T03:50:08;333.60;;;49.72;;
11425;SDS011;5769;47.998;7.788;2024-03-06T03:52:36;333.40;;;49.63;;
11425;SDS011;5769;47.998;7.788;2024-03-06T03:55:06;333.75;;;49.45;;
11425;SDS011;5769;47.998;7.788;2024-03-06T03:57:33;332.88;;;49.58;;
11425;SDS011;5769;47.998;7.788;2024-03-06T04:00:00;334.55;;;49.45;;
11425;SDS011;5769;47.998;7.788;2024-03-06T04:02:26;328.63;;;48.90;;
11425;SDS011;5769;47.998;7.788;2024-03-06T04:04:54;327.65;;;48.70;;
11425;SDS011;5769;47.998;7.788;2024-03-06T04:07:21;327.38;;;48.42;;
11425;SDS011;5769;47.998;7.788;2024-03-06T04:09:48;329.73;;;48.78;;
11425;SDS011;5769;47.998;7.788;2024-03-06T04:12:15;326.23;;;48.67;;
11425;SDS011;5769;47.998;7.788;2024-03-06T04:14:41;328.40;;;48.95;;
11425;SDS011;5769;47.998;7.788;2024-03-06T04:17:08;328.65;;;49.03;;
11425;SDS011;5769;47.998;7.788;2024-03-06T04:19:35;329.85;;;49.30;;
11425;SDS011;5769;47.998;7.788;2024-03-06T04:22:03;328.05;;;49.13;;
11425;SDS011;5769;47.998;7.788;2024-03-06T04:24:30;328.98;;;49.17;;
11425;SDS011;5769;47.998;7.788;2024-03-06T04:26:57;327.25;;;48.58;;
11425;SDS011;5769;47.998;7.788;2024-03-06T04:29:24;328.48;;;48.90;;
11425;SDS011;5769;47.998;7.788;2024-03-06T04:31:50;327.83;;;48.60;;
11425;SDS011;5769;47.998;7.788;2024-03-06T04:34:17;328.95;;;48.92;;
11425;SDS011;5769;47.998;7.788;2024-03-06T04:36:45;328.40;;;48.70;;
11425;SDS011;5769;47.998;7.788;2024-03-06T04:39:13;328.13;;;48.80;;
11425;SDS011;5769;47.998;7.788;2024-03-06T04:41:39;329.73;;;48.88;;
11425;SDS011;5769;47.998;7.788;2024-03-06T04:44:06;331.13;;;49.38;;
11425;SDS011;5769;47.998;7.788;2024-03-06T04:46:33;332.50;;;49.58;;
11425;SDS011;5769;47.998;7.788;2024-03-06T04:49:00;328.60;;;48.83;;
11425;SDS011;5769;47.998;7.788;2024-03-06T04:51:27;326.63;;;48.70;;
11425;SDS011;5769;47.998;7.788;2024-03-06T04:53:53;328.83;;;48.97;;
11425;SDS011;5769;47.998;7.788;2024-03-06T04:56:21;327.13;;;48.20;;
11425;SDS011;5769;47.998;7.788;2024-03-06T04:58:48;327.17;;;48.78;;
11425;SDS011;5769;47.998;7.788;2024-03-06T05:01:16;329.42;;;49.05;;
11425;SDS011;5769;47.998;7.788;2024-03-06T05:03:43;332.23;;;49.15;;
11425;SDS011;5769;47.998;7.788;2024-03-06T05:06:10;331.00;;;49.50;;
11425;SDS011;5769;47.998;7.788;2024-03-06T05:08:37;330.35;;;49.05;;
11425;SDS011;5769;47.998;7.788;2024-03-06T05:11:04;329.05;;;48.85;;
11425;SDS011;5769;47.998;7.788;2024-03-06T05:13:32;329.50;;;49.20;;
11425;SDS011;5769;47.998;7.788;2024-03-06T05:15:59;331.60;;;49.47;;
11425;SDS011;5769;47.998;7.788;2024-03-06T05:18:25;332.15;;;49.75;;
11425;SDS011;5769;47.998;7.788;2024-03-06T05:20:52;329.48;;;48.95;;
11425;SDS011;5769;47.998;7.788;2024-03-06T05:23:19;330.95;;;49.13;;
11425;SDS011;5769;47.998;7.788;2024-03-06T05:25:46;331.65;;;49.58;;
11425;SDS011;5769;47.998;7.788;2024-03-06T05:28:13;331.73;;;48.97;;
11425;SDS011;5769;47.998;7.788;2024-03-06T05:30:41;329.65;;;48.70;;
11425;SDS011;5769;47.998;7.788;2024-03-06T05:33:07;330.95;;;48.95;;
11425;SDS011;5769;47.998;7.788;2024-03-06T05:35:34;331.13;;;49.42;;
11425;SDS011;5769;47.998;7.788;2024-03-06T05:38:01;331.08;;;49.17;;
11425;SDS011;5769;47.998;7.788;2024-03-06T05:40:28;331.92;;;49.15;;
11425;SDS011;5769;47.998;7.788;2024-03-06T05:42:56;334.10;;;49.25;;
11425;SDS011;5769;47.998;7.788;2024-03-06T05:45:22;333.35;;;49.58;;
11425;SDS011;5769;47.998;7.788;2024-03-06T05:47:51;332.55;;;49.45;;
11425;SDS011;5769;47.998;7.788;2024-03-06T05:50:17;334.40;;;49.65;;
11425;SDS011;5769;47.998;7.788;2024-03-06T05:52:47;331.02;;;49.13;;
11425;SDS011;5769;47.998;7.788;2024-03-06T05:55:14;331.48;;;49.47;;
11425;SDS011;5769;47.998;7.788;2024-03-06T05:57:41;330.25;;;49.35;;
11425;SDS011;5769;47.998;7.788;2024-03-06T06:00:11;331.83;;;49.47;;
11425;SDS011;5769;47.998;7.788;2024-03-06T06:02:40;331.48;;;49.00;;
11425;SDS011;5769;47.998;7.788;2024-03-06T06:05:11;332.10;;;49.13;;
11425;SDS011;5769;47.998;7.788;2024-03-06T06:07:43;330.33;;;48.70;;
11425;SDS011;5769;47.998;7.788;2024-03-06T06:10:12;331.05;;;48.95;;
11425;SDS011;5769;47.998;7.788;2024-03-06T06:12:41;330.73;;;49.25;;
11425;SDS011;5769;47.998;7.788;2024-03-06T06:15:12;333.80;;;49.50;;
11425;SDS011;5769;47.998;7.788;2024-03-06T06:17:39;330.73;;;49.15;;
11425;SDS011;5769;47.998;7.788;2024-03-06T06:20:09;332.77;;;48.97;;
11425;SDS011;5769;47.998;7.788;2024-03-06T06:22:39;331.98;;;49.15;;
11425;SDS011;5769;47.998;7.788;2024-03-06T06:25:11;331.20;;;49.05;;
11425;SDS011;5769;47.998;7.788;2024-03-06T06:27:41;332.20;;;48.55;;
11425;SDS011;5769;47.998;7.788;2024-03-06T06:30:08;332.02;;;49.17;;
11425;SDS011;5769;47.998;7.788;2024-03-06T06:32:36;332.65;;;49.72;;
11425;SDS011;5769;47.998;7.788;2024-03-06T06:35:08;334.05;;;49.45;;
11425;SDS011;5769;47.998;7.788;2024-03-06T06:37:40;332.27;;;49.08;;
11425;SDS011;5769;47.998;7.788;2024-03-06T06:40:07;334.10;;;49.63;;
11425;SDS011;5769;47.998;7.788;2024-03-06T06:42:43;331.80;;;48.88;;
11425;SDS011;5769;47.998;7.788;2024-03-06T06:45:12;332.27;;;49.53;;
11425;SDS011;5769;47.998;7.788;2024-03-06T06:47:41;332.83;;;49.15;;
11425;SDS011;5769;47.998;7.788;2024-03-06T06:50:10;331.95;;;48.88;;
11425;SDS011;5769;47.998;7.788;2024-03-06T06:52:38;334.17;;;49.85;;
11425;SDS011;5769;47.998;7.788;2024-03-06T06:55:05;333.48;;;49.00;;
11425;SDS011;5769;47.998;7.788;2024-03-06T06:57:34;333.48;;;49.28;;
11425;SDS011;5769;47.998;7.788;2024-03-06T07:00:01;334.80;;;49.40;;
11425;SDS011;5769;47.998;7.788;2024-03-06T07:02:35;332.52;;;48.95;;
11425;SDS011;5769;47.998;7.788;2024-03-06T07:05:02;332.33;;;49.20;;
11425;SDS011;5769;47.998;7.788;2024-03-06T07:07:30;333.00;;;49.20;;
11425;SDS011;5769;47.998;7.788;2024-03-06T07:09:58;334.95;;;49.50;;
11425;SDS011;5769;47.998;7.788;2024-03-06T07:12:25;332.95;;;48.85;;
11425;SDS011;5769;47.998;7.788;2024-03-06T07:14:52;332.95;;;49.08;;
11425;SDS011;5769;47.998;7.788;2024-03-06T07:17:19;331.75;;;49.38;;
11425;SDS011;5769;47.998;7.788;2024-03-06T07:19:46;331.63;;;49.17;;
11425;SDS011;5769;47.998;7.788;2024-03-06T07:22:13;330.70;;;48.92;;
11425;SDS011;5769;47.998;7.788;2024-03-06T07:24:40;331.27;;;49.10;;
11425;SDS011;5769;47.998;7.788;2024-03-06T07:27:09;329.83;;;48.83;;
11425;SDS011;5769;47.998;7.788;2024-03-06T07:29:36;330.48;;;48.65;;
11425;SDS011;5769;47.998;7.788;2024-03-06T07:32:07;330.88;;;48.90;;
11425;SDS011;5769;47.998;7.788;2024-03-06T07:34:34;331.27;;;48.92;;
11425;SDS011;5769;47.998;7.788;2024-03-06T07:37:01;330.15;;;48.67;;
11425;SDS011;5769;47.998;7.788;2024-03-06T07:39:28;332.77;;;49.42;;
11425;SDS011;5769;47.998;7.788;2024-03-06T07:41:56;330.20;;;48.90;;
11425;SDS011;5769;47.998;7.788;2024-03-06T07:44:24;331.60;;;49.08;;
11425;SDS011;5769;47.998;7.788;2024-03-06T07:47:00;332.48;;;53.03;;
11425;SDS011;5769;47.998;7.788;2024-03-06T07:49:44;330.02;;;48.88;;
11425;SDS011;5769;47.998;7.788;2024-03-06T07:52:18;331.17;;;48.88;;
11425;SDS011;5769;47.998;7.788;2024-03-06T07:55:00;330.77;;;48.80;;
11425;SDS011;5769;47.998;7.788;2024-03-06T07:57:40;330.83;;;48.58;;
11425;SDS011;5769;47.998;7.788;2024-03-06T08:00:19;331.42;;;48.90;;
11425;SDS011;5769;47.998;7.788;2024-03-06T08:03:09;329.40;;;48.75;;
11425;SDS011;5769;47.998;7.788;2024-03-06T08:05:47;330.63;;;49.17;;
11425;SDS011;5769;47.998;7.788;2024-03-06T08:08:20;330.40;;;49.05;;
11425;SDS011;5769;47.998;7.788;2024-03-06T08:11:07;330.38;;;49.03;;
11425;SDS011;5769;47.998;7.788;2024-03-06T08:13:49;331.20;;;48.92;;
11425;SDS011;5769;47.998;7.788;2024-03-06T08:16:31;332.42;;;48.80;;
11425;SDS011;5769;47.998;7.788;2024-03-06T08:19:07;330.92;;;49.08;;
11425;SDS011;5769;47.998;7.788;2024-03-06T08:21:34;333.05;;;48.88;;
11425;SDS011;5769;47.998;7.788;2024-03-06T08:24:15;334.40;;;49.42;;
11425;SDS011;5769;47.998;7.788;2024-03-06T08:26:54;334.55;;;48.92;;
11425;SDS011;5769;47.998;7.788;2024-03-06T08:29:35;332.02;;;49.40;;
11425;SDS011;5769;47.998;7.788;2024-03-06T08:32:14;334.00;;;53.42;;
11425;SDS011;5769;47.998;7.788;2024-03-06T08:34:45;331.83;;;49.08;;
11425;SDS011;5769;47.998;7.788;2024-03-06T08:37:30;332.48;;;49.25;;
11425;SDS011;5769;47.998;7.788;2024-03-06T08:40:11;331.40;;;49.13;;
11425;SDS011;5769;47.998;7.788;2024-03-06T08:42:42;329.15;;;48.65;;
11425;SDS011;5769;47.998;7.788;2024-03-06T08:45:21;330.70;;;51.40;;
11425;SDS011;5769;47.998;7.788;2024-03-06T08:47:56;327.83;;;48.80;;
11425;SDS011;5769;47.998;7.788;2024-03-06T08:50:34;328.02;;;48.45;;
11425;SDS011;5769;47.998;7.788;2024-03-06T08:53:11;331.02;;;51.83;;
11425;SDS011;5769;47.998;7.788;2024-03-06T08:55:43;326.75;;;48.60;;
11425;SDS011;5769;47.998;7.788;2024-03-06T08:58:18;328.13;;;48.45;;
11425;SDS011;5769;47.998;7.788;2024-03-06T09:00:53;330.05;;;50.55;;
11425;SDS011;5769;47.998;7.788;2024-03-06T09:03:26;330.13;;;48.65;;
11425;SDS011;5769;47.998;7.788;2024-03-06T09:06:07;327.77;;;48.60;;
11425;SDS011;5769;47.998;7.788;2024-03-06T09:08:39;327.75;;;49.00;;
11425;SDS011;5769;47.998;7.788;2024-03-06T09:11:16;330.63;;;49.05;;
11425;SDS011;5769;47.998;7.788;2024-03-06T09:13:51;330.00;;;50.85;;
11425;SDS011;5769;47.998;7.788;2024-03-06T09:16:31;328.55;;;49.28;;
11425;SDS011;5769;47.998;7.788;2024-03-06T09:19:00;327.67;;;48.60;;
11425;SDS011;5769;47.998;7.788;2024-03-06T09:21:29;327.92;;;51.70;;
11425;SDS011;5769;47.998;7.788;2024-03-06T09:24:03;328.25;;;48.85;;
11425;SDS011;5769;47.998;7.788;2024-03-06T09:26:33;328.40;;;48.72;;
11425;SDS011;5769;47.998;7.788;2024-03-06T09:29:07;329.30;;;48.90;;
11425;SDS011;5769;47.998;7.788;2024-03-06T09:31:39;326.92;;;48.78;;
11425;SDS011;5769;47.998;7.788;2024-03-06T09:34:17;329.08;;;48.75;;
11425;SDS011;5769;47.998;7.788;2024-03-06T09:36:51;327.83;;;48.38;;
11425;SDS011;5769;47.998;7.788;2024-03-06T09:39:28;327.88;;;48.15;;
11425;SDS011;5769;47.998;7.788;2024-03-06T09:42:03;332.95;;;53.80;;
11425;SDS011;5769;47.998;7.788;2024-03-06T09:44:40;328.10;;;48.40;;
11425;SDS011;5769;47.998;7.788;2024-03-06T09:47:21;327.92;;;48.72;;
11425;SDS011;5769;47.998;7.788;2024-03-06T09:50:00;328.13;;;49.58;;
11425;SDS011;5769;47.998;7.788;2024-03-06T09:52:31;328.40;;;48.88;;
11425;SDS011;5769;47.998;7.788;2024-03-06T09:55:15;326.60;;;48.60;;
11425;SDS011;5769;47.998;7.788;2024-03-06T09:57:51;328.02;;;51.45;;
11425;SDS011;5769;47.998;7.788;2024-03-06T10:00:31;327.63;;;48.65;;
11425;SDS011;5769;47.998;7.788;2024-03-06T10:03:20;330.48;;;51.65;;
11425;SDS011;5769;47.998;7.788;2024-03-06T10:06:12;328.83;;;48.80;;
11425;SDS011;5769;47.998;7.788;2024-03-06T10:08:50;328.38;;;49.22;;
11425;SDS011;5769;47.998;7.788;2024-03-06T10:11:38;328.33;;;49.05;;
11425;SDS011;5769;47.998;7.788;2024-03-06T10:14:19;329.67;;;48.53;;
11425;SDS011;5769;47.998;7.788;2024-03-06T10:17:01;332.02;;;55.55;;
11425;SDS011;5769;47.998;7.788;2024-03-06T10:19:35;329.02;;;48.53;;
11425;SDS011;5769;47.998;7.788;2024-03-06T10:22:07;329.42;;;48.58;;
11425;SDS011;5769;47.998;7.788;2024-03-06T10:24:41;330.08;;;51.22;;
11425;SDS011;5769;47.998;7.788;2024-03-06T10:27:14;327.65;;;48.88;;
11425;SDS011;5769;47.998;7.788;2024-03-06T10:30:00;329.73;;;51.45;;
11425;SDS011;5769;47.998;7.788;2024-03-06T10:32:36;328.80;;;48.92;;
11425;SDS011;5769;47.998;7.788;2024-03-06T10:35:20;329.20;;;49.05;;
11425;SDS011;5769;47.998;7.788;2024-03-06T10:37:55;331.60;;;52.20;;
11425;SDS011;5769;47.998;7.788;2024-03-06T10:40:36;328.17;;;49.38;;
11425;SDS011;5769;47.998;7.788;2024-03-06T10:43:07;331.65;;;53.40;;
11425;SDS011;5769;47.998;7.788;2024-03-06T10:45:46;329.88;;;51.50;;
11425;SDS011;5769;47.998;7.788;2024-03-06T10:48:17;328.65;;;48.17;;
11425;SDS011;5769;47.998;7.788;2024-03-06T10:50:59;330.83;;;51.63;;
11425;SDS011;5769;47.998;7.788;2024-03-06T10:53:48;329.50;;;48.85;;
11425;SDS011;5769;47.998;7.788;2024-03-06T10:56:29;329.67;;;48.63;;
11425;SDS011;5769;47.998;7.788;2024-03-06T10:58:59;332.35;;;54.78;;
11425;SDS011;5769;47.998;7.788;2024-03-06T11:01:35;328.67;;;49.15;;
11425;SDS011;5769;47.998;7.788;2024-03-06T11:04:13;331.52;;;54.50;;
11425;SDS011;5769;47.998;7.788;2024-03-06T11:06:42;330.92;;;51.70;;
11425;SDS011;5769;47.998;7.788;2024-03-06T11:09:14;330.67;;;49.35;;
11425;SDS011;5769;47.998;7.788;2024-03-06T11:11:49;333.52;;;51.63;;
11425;SDS011;5769;47.998;7.788;2024-03-06T11:14:31;329.85;;;49.28;;
11425;SDS011;5769;47.998;7.788;2024-03-06T11:17:13;328.95;;;48.70;;
11425;SDS011;5769;47.998;7.788;2024-03-06T11:23:07;330.33;;;48.85;;
11425;SDS011;5769;47.998;7.788;2024-03-06T11:26:01;334.08;;;49.28;;
11425;SDS011;5769;47.998;7.788;2024-03-06T11:28:38;330.98;;;48.92;;
11425;SDS011;5769;47.998;7.788;2024-03-06T11:31:15;328.58;;;49.05;;
11425;SDS011;5769;47.998;7.788;2024-03-06T11:33:53;331.08;;;53.05;;
11425;SDS011;5769;47.998;7.788;2024-03-06T11:36:25;329.17;;;48.95;;
11425;SDS011;5769;47.998;7.788;2024-03-06T11:39:10;326.52;;;48.17;;
11425;SDS011;5769;47.998;7.788;2024-03-06T11:41:47;329.48;;;51.50;;
11425;SDS011;5769;47.998;7.788;2024-03-06T11:44:18;327.42;;;47.92;;
11425;SDS011;5769;47.998;7.788;2024-03-06T11:46:50;329.40;;;48.90;;
11425;SDS011;5769;47.998;7.788;2024-03-06T11:49:24;329.52;;;49.20;;
11425;SDS011;5769;47.998;7.788;2024-03-06T11:51:57;330.38;;;49.28;;
11425;SDS011;5769;47.998;7.788;2024-03-06T11:54:30;329.45;;;49.70;;
11425;SDS011;5769;47.998;7.788;2024-03-06T11:56:59;330.80;;;48.88;;
11425;SDS011;5769;47.998;7.788;2024-03-06T11:59:48;336.25;;;49.28;;
11425;SDS011;5769;47.998;7.788;2024-03-06T12:02:36;329.27;;;52.40;;
11425;SDS011;5769;47.998;7.788;2024-03-06T12:05:08;329.95;;;49.05;;
11425;SDS011;5769;47.998;7.788;2024-03-06T12:07:51;328.65;;;48.67;;
11425;SDS011;5769;47.998;7.788;2024-03-06T12:10:26;328.85;;;48.72;;
11425;SDS011;5769;47.998;7.788;2024-03-06T12:13:07;330.50;;;49.05;;
11425;SDS011;5769;47.998;7.788;2024-03-06T12:15:37;329.00;;;49.90;;
11425;SDS011;5769;47.998;7.788;2024-03-06T12:18:29;328.55;;;48.83;;
11425;SDS011;5769;47.998;7.788;2024-03-06T12:21:18;330.40;;;48.92;;
11425;SDS011;5769;47.998;7.788;2024-03-06T12:23:44;331.95;;;51.75;;
11425;SDS011;5769;47.998;7.788;2024-03-06T12:26:17;329.35;;;48.65;;
11425;SDS011;5769;47.998;7.788;2024-03-06T12:29:04;330.00;;;48.90;;
11425;SDS011;5769;47.998;7.788;2024-03-06T12:31:41;330.08;;;48.72;;
11425;SDS011;5769;47.998;7.788;2024-03-06T12:34:15;332.23;;;48.83;;
11425;SDS011;5769;47.998;7.788;2024-03-06T12:36:46;332.05;;;50.85;;
11425;SDS011;5769;47.998;7.788;2024-03-06T12:39:31;333.95;;;54.05;;
11425;SDS011;5769;47.998;7.788;2024-03-06T12:42:10;327.90;;;48.47;;
11425;SDS011;5769;47.998;7.788;2024-03-06T12:44:50;330.73;;;50.50;;
11425;SDS011;5769;47.998;7.788;2024-03-06T12:47:32;328.08;;;48.80;;
11425;SDS011;5769;47.998;7.788;2024-03-06T12:50:02;326.67;;;48.70;;
11425;SDS011;5769;47.998;7.788;2024-03-06T12:52:39;327.67;;;49.30;;
11425;SDS011;5769;47.998;7.788;2024-03-06T12:55:06;329.65;;;48.78;;
11425;SDS011;5769;47.998;7.788;2024-03-06T12:57:44;328.52;;;49.05;;
11425;SDS011;5769;47.998;7.788;2024-03-06T13:00:20;326.83;;;48.28;;
11425;SDS011;5769;47.998;7.788;2024-03-06T13:02:56;329.58;;;49.13;;
11425;SDS011;5769;47.998;7.788;2024-03-06T13:05:25;329.30;;;51.65;;
11425;SDS011;5769;47.998;7.788;2024-03-06T13:08:06;327.83;;;48.35;;
11425;SDS011;5769;47.998;7.788;2024-03-06T13:10:39;329.98;;;49.03;;
11425;SDS011;5769;47.998;7.788;2024-03-06T13:13:05;326.23;;;48.25;;
11425;SDS011;5769;47.998;7.788;2024-03-06T13:15:41;327.85;;;48.75;;
11425;SDS011;5769;47.998;7.788;2024-03-06T13:18:25;327.05;;;48.40;;
11425;SDS011;5769;47.998;7.788;2024-03-06T13:20:56;327.23;;;49.10;;
11425;SDS011;5769;47.998;7.788;2024-03-06T13:23:28;326.27;;;48.25;;
11425;SDS011;5769;47.998;7.788;2024-03-06T13:26:04;327.95;;;53.58;;
11425;SDS011;5769;47.998;7.788;2024-03-06T13:28:34;329.15;;;48.63;;
11425;SDS011;5769;47.998;7.788;2024-03-06T13:31:07;330.15;;;49.30;;
11425;SDS011;5769;47.998;7.788;2024-03-06T13:33:42;330.00;;;51.13;;
11425;SDS011;5769;47.998;7.788;2024-03-06T13:36:17;328.63;;;48.75;;
11425;SDS011;5769;47.998;7.788;2024-03-06T13:38:44;328.80;;;49.35;;
11425;SDS011;5769;47.998;7.788;2024-03-06T13:41:10;328.67;;;48.95;;
11425;SDS011;5769;47.998;7.788;2024-03-06T13:43:40;329.17;;;49.25;;
11425;SDS011;5769;47.998;7.788;2024-03-06T13:46:14;327.13;;;48.60;;
11425;SDS011;5769;47.998;7.788;2024-03-06T13:48:50;327.17;;;48.55;;
11425;SDS011;5769;47.998;7.788;2024-03-06T13:51:30;330.15;;;48.75;;
11425;SDS011;5769;47.998;7.788;2024-03-06T13:54:08;331.98;;;56.33;;
11425;SDS011;5769;47.998;7.788;2024-03-06T13:56:41;328.10;;;49.50;;
11425;SDS011;5769;47.998;7.788;2024-03-06T13:59:26;328.88;;;48.92;;
11425;SDS011;5769;47.998;7.788;2024-03-06T14:02:02;328.90;;;50.08;;
11425;SDS011;5769;47.998;7.788;2024-03-06T14:04:46;328.20;;;48.95;;
11425;SDS011;5769;47.998;7.788;2024-03-06T14:07:16;327.65;;;48.90;;
11425;SDS011;5769;47.998;7.788;2024-03-06T14:09:45;329.27;;;49.10;;
11425;SDS011;5769;47.998;7.788;2024-03-06T14:12:18;329.27;;;48.58;;
11425;SDS011;5769;47.998;7.788;2024-03-06T14:14:47;328.73;;;51.20;;
11425;SDS011;5769;47.998;7.788;2024-03-06T14:17:27;330.60;;;48.83;;
11425;SDS011;5769;47.998;7.788;2024-03-06T14:19:59;328.30;;;49.08;;
11425;SDS011;5769;47.998;7.788;2024-03-06T14:22:28;330.38;;;51.10;;
11425;SDS011;5769;47.998;7.788;2024-03-06T14:24:57;329.75;;;49.03;;
11425;SDS011;5769;47.998;7.788;2024-03-06T14:27:27;330.52;;;48.90;;
11425;SDS011;5769;47.998;7.788;2024-03-06T14:30:04;329.90;;;49.65;;
11425;SDS011;5769;47.998;7.788;2024-03-06T14:32:45;330.10;;;49.33;;
11425;SDS011;5769;47.998;7.788;2024-03-06T14:35:17;331.05;;;53.22;;
11425;SDS011;5769;47.998;7.788;2024-03-06T14:37:50;329.92;;;48.95;;
11425;SDS011;5769;47.998;7.788;2024-03-06T14:40:22;329.08;;;48.72;;
11425;SDS011;5769;47.998;7.788;2024-03-06T14:43:04;328.85;;;49.00;;
11425;SDS011;5769;47.998;7.788;2024-03-06T14:45:40;325.85;;;48.30;;
11425;SDS011;5769;47.998;7.788;2024-03-06T14:48:17;326.98;;;48.40;;
11425;SDS011;5769;47.998;7.788;2024-03-06T14:50:48;329.08;;;49.28;;